Latitude: N 50° 09' 49" Longitude: W 05° 11' 53" Elevation: 168m ASL

There are 2 visitors online

Adverts
Latest METAR Data

Below are the latest METARs ("Meteorological Services to Airmen Reports"), for RNAS Culdrose and Newquay Airport.

EGDR - RNAS Culdrose
Distance from station: SW 6mi, 9km
Updated: Fri, 22-Jun-2018 8:50pm BST
Clear
Clear
 Wind from N
Wind: N 15 mph , 24 km/h
Temperature: 57°F , 14°C
Dew Point: 48°F , 9°C
Humidity: 72%
Barometer: 30.42 inHg , 1030 hPa
Clouds: Clear
Visibility: 6 miles , 10 km
2018/06/22 19:50 EGDR 221950Z AUTO 36013KT 9999 // NCD 14/09 Q1030
EGHQ - Newquay Airport
Distance from station: NE 21mi, 34km
Updated: Fri, 22-Jun-2018 8:50pm BST
Clear
Clear
 Wind from NNE
Wind: NNE 10 mph , 17 km/h
Temperature: 55°F , 13°C
Dew Point: 50°F , 10°C
Humidity: 82%
Barometer: 30.45 inHg , 1031 hPa
Summary: Clear
Visibility: greater than 7 miles , 10 km
2018/06/22 19:50 EGHQ 221950Z 03009KT CAVOK 13/10 Q1031
 
EGTE - Exeter Airport
Distance from station: ENE 88mi, 141km
Updated: Fri, 22-Jun-2018 9:50pm BST
Clear
Clear
 Wind from NE
Wind: NE 6 mph , 9 km/h
Temperature: 61°F , 16°C
Dew Point: 46°F , 8°C
Humidity: 59%
Barometer: 30.42 inHg , 1030 hPa
Summary: Clear
Visibility: greater than 7 miles , 10 km
2018/06/22 20:50 EGTE 222050Z 04005KT CAVOK 16/08 Q1030
EGHE - St Marys, IOS
Distance from station: W 51mi, 82km
Updated: Fri, 22-Jun-2018 6:20pm BST
NOT Current
Clear
Clear
 Wind from NNE
Wind: NNE 18 mph , 30 km/h
Temperature: 59°F , 15°C
Dew Point: 50°F , 10°C
Humidity: 72%
Barometer: 30.45 inHg , 1031 hPa
Summary: Clear
Visibility: greater than 7 miles , 10 km
2018/06/22 17:20 EGHE 221720Z 02016KT CAVOK 15/10 Q1031

Metar display script from Saratoga-Weather.org

UK - WEATHER STATION TOPSITES - UK World Weather Websites

This is a private weather station, never base important decisions or events on data from this weather station. Although every effort has been made to make the data as accurate as possible it does not meet MetOffice standards. It is proved as a guide of local weather conditions. We accept no liability for any loss which may arise from use of the data.

Copyright © Carnkie Weather 2009 - 2018.